Time;durP1;ratioP1;P1;durP2;ratioP2;P2;SDS_P1;SDS_P2;PMS_P1;PMS_P2;Temp;Humidity;BMP_temperature;BMP_pressure;BME280_temperature;BME280_humidity;BME280_pressure;Samples;Min_cycle;Max_cycle;Signal;HPM_P1;HPM_P2
2021/07/14 00:02:02;;;;;;;0.17;0.17;;;;;;;23.00;65.55;99805.03;4961487;28;20149;-78
2021/07/14 00:04:29;;;;;;;0.28;0.20;;;;;;;23.05;65.41;99802.47;4982432;28;20049;-80
2021/07/14 00:06:55;;;;;;;0.20;0.20;;;;;;;23.07;65.63;99803.06;4991964;28;20050;-78
2021/07/14 00:09:21;;;;;;;0.20;0.20;;;;;;;23.03;65.75;99804.59;4993677;28;20056;-81
2021/07/14 00:11:58;;;;;;;0.70;0.20;;;;;;;22.97;65.93;99802.78;4971869;28;20077;-80
2021/07/14 00:22:45;;;;;;;0.20;0.20;;;;;;;23.08;65.13;99807.53;4993835;28;20041;-79
2021/07/14 00:25:12;;;;;;;0.10;0.10;;;;;;;23.10;65.24;99816.41;5005000;28;20082;-80
2021/07/14 00:27:41;;;;;;;0.10;0.10;;;;;;;22.99;65.37;99803.38;4986524;28;20074;-79
2021/07/14 00:30:10;;;;;;;0.52;0.20;;;;;;;22.98;65.59;99802.53;4999568;28;20105;-79
2021/07/14 00:32:36;;;;;;;0.10;0.10;;;;;;;22.90;65.60;99799.22;4973693;28;20465;-78
2021/07/14 00:35:14;;;;;;;1.15;0.40;;;;;;;22.95;65.69;99802.16;4988604;28;20137;-78
2021/07/14 00:37:40;;;;;;;0.10;0.10;;;;;;;22.88;66.21;99808.53;5008764;28;20076;-79
2021/07/14 00:40:10;;;;;;;0.47;0.38;;;;;;;22.88;66.06;99813.22;4966416;28;20030;-82
2021/07/14 00:42:36;;;;;;;0.30;0.20;;;;;;;22.79;66.53;99809.91;5000242;28;20168;-79
2021/07/14 00:45:03;;;;;;;0.17;0.10;;;;;;;22.81;66.22;99810.50;4987598;28;20490;-79
2021/07/14 00:47:32;;;;;;;0.15;0.10;;;;;;;22.82;66.51;99809.47;4981124;28;20046;-77
2021/07/14 00:49:59;;;;;;;0.15;0.15;;;;;;;22.82;65.92;99809.47;4998104;28;20041;-79
2021/07/14 00:52:32;;;;;;;0.10;0.10;;;;;;;22.76;66.24;99815.03;4995804;28;20046;-79
2021/07/14 00:54:58;;;;;;;0.20;0.20;;;;;;;22.73;66.88;99807.22;4958914;28;20037;-78
2021/07/14 00:57:27;;;;;;;0.10;0.10;;;;;;;22.68;67.16;99813.41;4992646;28;20139;-79
2021/07/14 00:59:53;;;;;;;0.10;0.10;;;;;;;22.59;67.48;99798.22;5005473;28;20064;-80
2021/07/14 01:02:20;;;;;;;0.20;0.20;;;;;;;22.57;67.28;99803.13;5005434;28;20093;-79
2021/07/14 01:04:51;;;;;;;0.20;0.20;;;;;;;22.49;67.39;99803.41;4989149;28;20034;-81
2021/07/14 01:07:24;;;;;;;0.10;0.10;;;;;;;22.54;67.48;99806.34;4983877;28;20042;-79
2021/07/14 01:09:57;;;;;;;0.20;0.20;;;;;;;22.48;67.79;99807.22;4999607;28;20042;-78
2021/07/14 01:12:36;;;;;;;0.75;0.20;;;;;;;22.41;67.90;99811.94;4990293;28;20173;-80
2021/07/14 01:15:08;;;;;;;0.10;0.10;;;;;;;22.33;68.06;99811.16;4971132;28;20042;-79
2021/07/14 01:17:43;;;;;;;0.80;0.40;;;;;;;22.36;67.95;99810.72;4997640;28;20442;-80
2021/07/14 01:20:18;;;;;;;0.17;0.17;;;;;;;22.41;67.96;99809.19;4995768;28;20064;-78
2021/07/14 01:22:50;;;;;;;0.35;0.20;;;;;;;22.47;67.53;99811.06;5002111;28;20133;-78
2021/07/14 01:25:25;;;;;;;0.55;0.30;;;;;;;22.54;66.97;99806.34;5004439;28;20045;-79
2021/07/14 01:27:51;;;;;;;0.20;0.20;;;;;;;22.59;66.75;99804.56;4992317;28;20438;-79
2021/07/14 01:30:17;;;;;;;0.30;0.30;;;;;;;22.66;66.35;99804.50;5007488;28;20050;-81
2021/07/14 01:32:44;;;;;;;0.43;0.10;;;;;;;22.76;66.19;99809.53;5008748;28;20037;-82
2021/07/14 01:35:21;;;;;;;1.42;0.30;;;;;;;22.83;65.93;99822.16;4996463;28;20076;-78
2021/07/14 01:37:49;;;;;;;0.20;0.20;;;;;;;22.80;65.83;99811.59;4991619;28;20076;-80
2021/07/14 01:40:17;;;;;;;2.47;0.80;;;;;;;22.83;66.04;99811.13;4997334;28;20137;-80
2021/07/14 01:42:45;;;;;;;1.08;0.40;;;;;;;22.88;65.73;99807.69;5009949;28;20100;-78
2021/07/14 01:45:12;;;;;;;0.20;0.20;;;;;;;22.88;65.58;99803.00;4988764;28;20064;-79
2021/07/14 01:47:39;;;;;;;0.50;0.20;;;;;;;22.87;65.73;99806.84;4973749;28;20062;-80
2021/07/14 01:50:06;;;;;;;0.30;0.20;;;;;;;22.97;65.26;99816.56;4969712;28;20042;-78
2021/07/14 01:52:33;;;;;;;0.85;0.20;;;;;;;23.00;65.53;99810.56;4987353;28;20042;-78
2021/07/14 01:55:03;;;;;;;0.20;0.13;;;;;;;22.99;65.51;99809.72;4974369;28;20134;-79
2021/07/14 01:57:32;;;;;;;0.50;0.20;;;;;;;23.04;65.53;99817.34;4985683;28;20149;-77
2021/07/14 01:59:58;;;;;;;0.22;0.20;;;;;;;22.97;65.45;99816.56;4958713;28;20057;-80
2021/07/14 02:02:30;;;;;;;2.25;0.68;;;;;;;22.97;66.13;99822.91;4941216;28;20045;-79
2021/07/14 02:04:57;;;;;;;0.50;0.30;;;;;;;23.00;66.05;99818.84;5002309;28;20460;-77
2021/07/14 02:07:26;;;;;;;0.20;0.20;;;;;;;23.01;66.34;99812.28;4971983;28;20046;-79
2021/07/14 02:09:53;;;;;;;0.10;0.10;;;;;;;22.97;66.53;99811.03;4981689;28;20056;-78
2021/07/14 02:12:24;;;;;;;0.22;0.20;;;;;;;22.95;66.96;99821.44;4969388;28;20050;-81
2021/07/14 02:15:09;;;;;;;0.17;0.17;;;;;;;22.95;66.67;99813.16;4997040;28;20038;-79
2021/07/14 02:17:39;;;;;;;0.20;0.20;;;;;;;23.00;66.55;99824.34;4993574;28;20499;-79
2021/07/14 02:20:08;;;;;;;0.10;0.10;;;;;;;22.99;67.00;99815.25;4982510;28;20391;-80
2021/07/14 02:22:34;;;;;;;1.10;0.30;;;;;;;23.05;66.74;99819.00;4965872;28;20440;-78
2021/07/14 02:25:00;;;;;;;0.30;0.20;;;;;;;23.11;66.66;99815.34;4992837;28;20455;-77
2021/07/14 02:27:26;;;;;;;0.20;0.20;;;;;;;23.10;66.74;99810.88;5001810;28;20398;-78
2021/07/14 02:29:52;;;;;;;0.20;0.20;;;;;;;23.11;66.80;99801.56;4989089;28;20522;-79
2021/07/14 02:32:20;;;;;;;0.20;0.20;;;;;;;23.09;66.54;99809.22;4983877;28;20543;-79
2021/07/14 02:34:48;;;;;;;0.63;0.40;;;;;;;23.12;66.90;99803.22;4961241;28;20526;-79
2021/07/14 02:37:35;;;;;;;0.50;0.30;;;;;;;23.16;66.81;99815.50;4987122;28;20046;-79
2021/07/14 02:40:02;;;;;;;0.10;0.10;;;;;;;23.22;66.61;99803.56;5005364;28;20054;-79
2021/07/14 02:42:32;;;;;;;0.20;0.20;;;;;;;23.27;66.72;99811.97;4989671;28;20082;-80
2021/07/14 02:45:04;;;;;;;0.20;0.20;;;;;;;23.39;66.27;99822.22;4999702;28;20073;-80
2021/07/14 02:47:41;;;;;;;0.23;0.20;;;;;;;23.43;65.97;99809.66;4972854;28;20078;-78
2021/07/14 02:50:10;;;;;;;0.30;0.20;;;;;;;23.55;65.69;99818.84;4981927;28;20324;-79
2021/07/14 02:52:36;;;;;;;0.20;0.20;;;;;;;23.54;65.53;99806.09;5005658;28;20041;-81
2021/07/14 02:55:04;;;;;;;0.28;0.20;;;;;;;23.64;64.93;99817.44;4957883;28;20518;-79
2021/07/14 02:57:30;;;;;;;0.30;0.10;;;;;;;23.78;64.60;99816.22;4975944;28;20148;-79
2021/07/14 02:59:57;;;;;;;0.30;0.30;;;;;;;23.85;64.21;99818.06;4993081;28;20046;-80
2021/07/14 03:02:24;;;;;;;0.32;0.30;;;;;;;24.02;63.87;99813.53;4986585;28;20447;-78
2021/07/14 03:04:52;;;;;;;0.77;0.40;;;;;;;24.14;63.48;99813.59;5008988;28;20108;-80
2021/07/14 03:07:23;;;;;;;0.77;0.30;;;;;;;24.25;63.61;99819.16;4973482;28;20042;-79
2021/07/14 03:09:48;;;;;;;0.80;0.30;;;;;;;24.40;63.14;99821.50;4989759;28;20520;-81
2021/07/14 03:12:17;;;;;;;0.20;0.20;;;;;;;24.55;62.12;99818.28;4958709;28;20209;-79
2021/07/14 03:14:46;;;;;;;0.20;0.20;;;;;;;24.67;62.26;99810.81;4987733;28;20145;-79
2021/07/14 03:17:15;;;;;;;0.30;0.30;;;;;;;24.78;61.32;99807.22;4956555;28;20054;-80
2021/07/14 03:19:41;;;;;;;0.95;0.40;;;;;;;24.99;61.33;99807.69;4972540;28;20117;-78
2021/07/14 03:22:08;;;;;;;0.20;0.20;;;;;;;25.16;60.72;99808.69;4986765;28;20073;-83
2021/07/14 03:24:35;;;;;;;0.20;0.15;;;;;;;25.31;59.71;99813.69;5003838;28;20125;-79
2021/07/14 03:27:06;;;;;;;0.52;0.28;;;;;;;25.47;59.43;99817.63;4973227;28;20050;-79
2021/07/14 03:29:33;;;;;;;0.30;0.30;;;;;;;25.64;59.27;99821.31;5002845;28;20041;-78
2021/07/14 03:32:00;;;;;;;0.20;0.20;;;;;;;25.80;58.10;99824.41;4990647;28;20072;-81
2021/07/14 03:34:27;;;;;;;0.10;0.10;;;;;;;25.94;58.38;99811.94;4970197;28;20030;-82
2021/07/14 03:36:53;;;;;;;0.75;0.25;;;;;;;26.10;57.77;99816.66;5009666;28;20056;-80
2021/07/14 03:39:21;;;;;;;0.20;0.20;;;;;;;26.28;57.57;99814.78;4991875;28;20143;-81
2021/07/14 03:41:48;;;;;;;0.50;0.30;;;;;;;26.45;57.25;99818.41;4995996;28;20125;-81
2021/07/14 03:44:15;;;;;;;0.55;0.30;;;;;;;26.65;56.37;99818.75;4996761;28;20585;-80
2021/07/14 03:46:43;;;;;;;0.45;0.30;;;;;;;26.85;55.48;99814.66;4971938;28;20038;-80
2021/07/14 03:49:10;;;;;;;0.75;0.30;;;;;;;27.01;55.27;99813.75;5002750;28;20039;-78
2021/07/14 03:51:36;;;;;;;0.30;0.30;;;;;;;27.09;54.52;99813.31;5006022;28;20034;-79
2021/07/14 03:54:02;;;;;;;0.30;0.22;;;;;;;27.30;54.39;99808.09;4975180;28;20050;-80
2021/07/14 03:56:29;;;;;;;0.20;0.20;;;;;;;27.52;53.27;99813.66;5001679;28;20053;-82
2021/07/14 03:58:56;;;;;;;0.40;0.30;;;;;;;27.75;53.16;99818.13;4984170;28;20136;-81
2021/07/14 04:01:23;;;;;;;0.38;0.30;;;;;;;27.98;51.76;99817.84;4979272;28;20040;-81
2021/07/14 04:03:52;;;;;;;0.28;0.28;;;;;;;28.13;51.16;99819.94;4994900;28;20065;-84
2021/07/14 04:06:18;;;;;;;0.28;0.28;;;;;;;28.35;50.95;99819.88;4977541;28;20566;-81
2021/07/14 04:08:46;;;;;;;0.35;0.25;;;;;;;28.56;51.33;99810.63;4994691;28;20442;-82
2021/07/14 04:11:13;;;;;;;0.57;0.30;;;;;;;28.73;50.04;99804.06;4990324;28;20088;-81
2021/07/14 04:13:41;;;;;;;0.28;0.20;;;;;;;28.92;49.29;99816.44;4956899;28;20037;-80
2021/07/14 04:16:07;;;;;;;0.30;0.30;;;;;;;29.10;48.38;99811.56;5010767;28;20519;-83
2021/07/14 04:18:33;;;;;;;0.32;0.30;;;;;;;29.29;47.02;99815.59;4953778;28;20039;-81
2021/07/14 04:20:59;;;;;;;0.30;0.30;;;;;;;29.50;46.60;99805.34;4983302;28;20072;-84
2021/07/14 04:23:26;;;;;;;0.40;0.30;;;;;;;29.65;45.55;99807.41;4997660;28;20044;-82
2021/07/14 04:25:53;;;;;;;0.25;0.20;;;;;;;29.89;45.42;99803.03;4978956;28;20499;-79
2021/07/14 04:28:28;;;;;;;0.30;0.30;;;;;;;29.97;45.63;99808.06;5009780;28;20065;-82
2021/07/14 04:30:55;;;;;;;0.30;0.30;;;;;;;30.16;46.86;99804.72;4980362;28;20142;-80
2021/07/14 04:33:21;;;;;;;0.20;0.20;;;;;;;30.39;45.44;99795.88;5006875;28;20049;-82
2021/07/14 04:35:51;;;;;;;1.85;0.52;;;;;;;30.69;45.37;99805.34;4992034;28;20042;-83
2021/07/14 04:38:21;;;;;;;0.32;0.32;;;;;;;30.87;45.13;99804.81;4999832;28;20716;-82
2021/07/14 04:40:47;;;;;;;0.20;0.20;;;;;;;31.08;44.08;99804.75;4987161;28;20042;-82
2021/07/14 04:43:14;;;;;;;0.25;0.25;;;;;;;31.22;44.71;99803.03;5015120;28;20038;-83
2021/07/14 04:45:42;;;;;;;0.30;0.30;;;;;;;31.19;43.51;99798.88;4992038;28;20046;-82
2021/07/14 04:48:09;;;;;;;0.30;0.30;;;;;;;31.26;43.87;99803.31;4973692;28;20037;-83
2021/07/14 04:50:38;;;;;;;0.40;0.30;;;;;;;31.46;42.92;99815.28;5009610;28;20042;-84
2021/07/14 04:53:06;;;;;;;0.40;0.40;;;;;;;31.88;42.88;99815.94;4965549;28;20145;-82
2021/07/14 04:55:32;;;;;;;1.33;0.60;;;;;;;32.03;42.13;99807.50;5018042;28;20034;-82
2021/07/14 04:57:59;;;;;;;0.30;0.30;;;;;;;32.26;40.83;99805.91;4983020;28;20057;-84
2021/07/14 05:00:25;;;;;;;0.30;0.30;;;;;;;32.42;39.55;99815.06;4974595;28;20507;-83
2021/07/14 05:02:53;;;;;;;0.35;0.35;;;;;;;32.67;39.38;99805.59;4964309;28;20042;-83
2021/07/14 05:05:19;;;;;;;0.47;0.40;;;;;;;32.85;39.04;99816.06;4994467;28;20054;-85
2021/07/14 05:07:47;;;;;;;0.40;0.40;;;;;;;33.18;38.08;99810.72;5006729;28;20093;-82
2021/07/14 05:10:14;;;;;;;0.63;0.40;;;;;;;33.34;37.59;99803.78;5012221;28;20048;-83
2021/07/14 05:12:41;;;;;;;0.45;0.40;;;;;;;33.49;37.67;99813.19;4990659;28;20047;-81
2021/07/14 05:15:08;;;;;;;0.50;0.40;;;;;;;33.76;36.52;99810.59;4994388;28;20038;-85
2021/07/14 05:17:35;;;;;;;0.80;0.50;;;;;;;33.94;36.18;99811.75;5005051;28;20073;-82
2021/07/14 05:20:02;;;;;;;0.40;0.40;;;;;;;34.23;36.51;99814.44;4996945;28;20042;-83
2021/07/14 05:22:29;;;;;;;0.40;0.40;;;;;;;34.45;35.26;99812.97;4999896;28;20078;-83
2021/07/14 05:24:57;;;;;;;0.73;0.52;;;;;;;34.54;35.28;99813.97;5001463;28;20033;-86
2021/07/14 05:27:24;;;;;;;0.82;0.50;;;;;;;34.86;34.57;99810.31;4993213;28;20033;-83
2021/07/14 05:29:52;;;;;;;0.40;0.40;;;;;;;34.99;34.49;99814.28;4991424;28;20092;-85
2021/07/14 05:32:19;;;;;;;0.73;0.60;;;;;;;35.24;34.70;99811.00;4961255;28;20117;-81
2021/07/14 05:34:45;;;;;;;0.82;0.50;;;;;;;35.36;34.39;99812.47;5000711;28;20048;-85
2021/07/14 05:37:14;;;;;;;0.50;0.50;;;;;;;35.61;33.96;99806.34;4994098;28;20038;-84
2021/07/14 05:39:40;;;;;;;0.50;0.50;;;;;;;35.81;34.04;99815.50;4966928;28;20045;-83
2021/07/14 05:42:08;;;;;;;1.05;0.52;;;;;;;35.81;33.41;99819.16;4987902;28;20049;-84
2021/07/14 05:44:40;;;;;;;0.40;0.40;;;;;;;36.08;33.43;99811.81;4973587;28;20141;-85
2021/07/14 05:47:07;;;;;;;0.40;0.40;;;;;;;35.82;34.11;99815.19;4987886;28;20115;-83
2021/07/14 05:49:38;;;;;;;0.50;0.50;;;;;;;36.07;33.01;99822.25;5009038;28;20018;-85
2021/07/14 05:52:08;;;;;;;0.50;0.50;;;;;;;36.13;32.75;99815.34;4974266;28;20042;-85
2021/07/14 05:54:36;;;;;;;0.68;0.50;;;;;;;36.17;33.72;99816.38;5001387;28;20046;-83
2021/07/14 05:57:06;;;;;;;0.50;0.50;;;;;;;36.32;32.82;99805.91;4988332;28;20046;-81
2021/07/14 05:59:36;;;;;;;0.43;0.43;;;;;;;35.95;33.29;99807.88;5126019;23;20042;-86
2021/07/14 06:02:11;;;;;;;0.45;0.45;;;;;;;36.25;33.20;99817.59;4989866;28;20034;-85
2021/07/14 06:04:45;;;;;;;0.57;0.57;;;;;;;36.33;33.03;99807.56;5047496;23;20182;31
2021/07/14 06:10:11;;;;;;;0.60;0.55;;;;;;;36.69;32.07;99804.72;4940411;29;20063;-86
2021/07/14 06:12:39;;;;;;;0.73;0.60;;;;;;;37.25;31.88;99805.19;4973763;28;20038;-85
2021/07/14 06:15:07;;;;;;;0.50;0.50;;;;;;;37.53;30.68;99795.38;4959367;28;20142;-86
2021/07/14 06:17:34;;;;;;;0.55;0.55;;;;;;;37.29;31.08;99807.03;4945894;28;20042;-87
2021/07/14 06:20:05;;;;;;;0.65;0.50;;;;;;;37.80;29.98;99799.06;4965092;28;20027;-86
2021/07/14 06:22:33;;;;;;;0.50;0.50;;;;;;;37.98;30.01;99795.13;4993772;28;20054;-86
2021/07/14 06:25:01;;;;;;;0.50;0.50;;;;;;;37.51;30.14;99791.22;5573392;23;20816;-84
2021/07/14 06:27:28;;;;;;;0.50;0.50;;;;;;;37.77;30.44;99788.44;4971790;28;20031;-86
2021/07/14 06:29:56;;;;;;;0.65;0.65;;;;;;;38.16;29.82;99795.16;4986883;28;20056;-86
2021/07/14 06:32:23;;;;;;;0.70;0.70;;;;;;;38.61;29.01;99784.34;4976680;28;20115;-83
2021/07/14 06:34:50;;;;;;;0.52;0.52;;;;;;;38.95;27.65;99782.63;4969264;28;20045;-85
2021/07/14 06:37:18;;;;;;;0.90;0.70;;;;;;;39.13;26.95;99789.03;4963247;28;20109;-86
2021/07/14 06:39:45;;;;;;;0.60;0.60;;;;;;;39.03;27.49;99796.72;4993381;28;20054;-87
2021/07/14 06:42:13;;;;;;;0.60;0.60;;;;;;;39.57;26.60;99781.19;5633551;23;20058;-87
2021/07/14 06:44:41;;;;;;;0.60;0.60;;;;;;;39.95;26.03;99787.63;4959418;28;20046;-85
2021/07/14 06:47:09;;;;;;;0.70;0.70;;;;;;;40.36;24.63;99794.47;4975890;28;20058;-85
2021/07/14 06:49:41;;;;;;;0.50;0.50;;;;;;;40.80;23.21;99799.72;4939289;29;20130;-87
2021/07/14 06:52:12;;;;;;;0.50;0.50;;;;;;;41.07;21.93;99792.63;4953941;29;20036;-86
2021/07/14 06:54:40;;;;;;;0.70;0.70;;;;;;;41.08;22.25;99799.94;4968204;29;20059;-86
2021/07/14 06:57:09;;;;;;;0.60;0.60;;;;;;;40.92;22.56;99796.94;4955033;29;20036;-87
2021/07/14 07:09:28;;;;;;;0.60;0.60;;;;;;;41.27;23.91;99786.00;5612347;23;20042;-87
2021/07/14 07:15:01;;;;;;;0.60;0.60;;;;;;;42.32;21.76;99779.66;5508420;23;20101;-87
2021/07/14 07:21:09;;;;;;;0.70;0.70;;;;;;;42.48;21.38;99780.50;5606686;23;20106;-85
2021/07/14 07:27:04;;;;;;;0.75;0.75;;;;;;;43.24;20.40;99781.38;5082359;23;20126;-87
2021/07/14 07:29:35;;;;;;;0.55;0.55;;;;;;;43.61;19.24;99777.44;4967271;28;20046;-86
2021/07/14 07:41:13;;;;;;;0.80;0.80;;;;;;;44.24;19.32;99782.94;5235432;23;20053;-86
2021/07/14 07:46:57;;;;;;;0.30;0.30;;;;;;;42.43;20.98;99785.63;6081322;23;20017;-85
2021/07/14 07:49:27;;;;;;;0.38;0.30;;;;;;;40.96;23.21;99783.72;5510676;23;20980;-89
2021/07/14 07:55:44;;;;;;;0.80;0.80;;;;;;;42.62;21.60;99765.88;5628094;23;20113;31
2021/07/14 07:58:12;;;;;;;0.80;0.80;;;;;;;42.71;20.60;99763.72;5152387;23;20050;-86
2021/07/14 08:00:41;;;;;;;0.80;0.80;;;;;;;43.23;20.41;99774.06;5006764;23;20074;-86
2021/07/14 08:03:09;;;;;;;0.40;0.40;;;;;;;43.10;20.58;99769.63;4964074;28;20030;-87
2021/07/14 08:09:11;;;;;;;0.10;0.10;;;;;;;40.06;24.32;99767.38;5321135;23;20054;-86
2021/07/14 08:14:45;;;;;;;0.10;0.10;;;;;;;38.02;26.68;99756.59;5612118;23;20066;-86
2021/07/14 08:17:17;;;;;;;0.10;0.10;;;;;;;37.20;27.53;99752.59;5387460;23;20026;31
2021/07/14 08:22:50;;;;;;;0.20;0.20;;;;;;;37.09;27.59;99745.59;5229182;23;20084;-88
2021/07/14 08:25:18;;;;;;;0.10;0.10;;;;;;;37.14;28.13;99740.63;5182215;23;20097;-87
2021/07/14 08:27:46;;;;;;;0.10;0.10;;;;;;;37.05;28.90;99739.78;5148972;23;20051;-83
2021/07/14 08:35:53;;;;;;;0.15;0.10;;;;;;;36.69;28.86;99737.91;5316836;23;20048;-86
2021/07/14 08:38:29;;;;;;;0.20;0.17;;;;;;;36.46;29.16;99739.91;5414680;23;20042;-85
2021/07/14 08:40:58;;;;;;;0.10;0.10;;;;;;;36.41;30.54;99742.00;5026744;28;20089;-86
2021/07/14 08:46:44;;;;;;;0.20;0.20;;;;;;;36.22;29.52;99734.59;5146061;23;20066;-86
2021/07/14 08:52:15;;;;;;;0.10;0.10;;;;;;;36.40;29.29;99741.19;5170327;23;20066;-84
2021/07/14 08:54:45;;;;;;;0.40;0.40;;;;;;;36.46;28.70;99736.28;4976095;28;20113;-84
2021/07/14 08:57:14;;;;;;;1.10;1.10;;;;;;;38.70;25.77;99724.97;5239387;23;20047;-85
2021/07/14 08:59:42;;;;;;;1.20;1.10;;;;;;;40.48;24.15;99732.19;4975466;28;20082;-85
2021/07/14 09:02:10;;;;;;;0.80;0.80;;;;;;;40.61;22.66;99735.88;4990720;28;20034;-86
2021/07/14 09:04:39;;;;;;;0.90;0.90;;;;;;;41.91;21.87;99724.84;5668555;23;20047;-86
2021/07/14 09:07:07;;;;;;;0.88;0.88;;;;;;;42.65;20.77;99733.88;4927811;28;20134;-84
2021/07/14 09:09:39;;;;;;;0.90;0.90;;;;;;;42.27;20.95;99725.88;5087736;23;20117;-84
2021/07/14 09:12:13;;;;;;;0.80;0.80;;;;;;;40.83;21.68;99726.13;5327167;23;20841;-84
2021/07/14 09:41:07;;;;;;;0.70;0.70;;;;;;;43.08;20.07;99695.22;5536338;23;20098;-80
2021/07/14 09:43:34;;;;;;;0.10;0.10;;;;;;;40.87;21.58;99693.03;4979292;28;20502;-79
2021/07/14 09:46:05;;;;;;;0.10;0.10;;;;;;;40.89;22.08;99702.03;4953856;28;20038;-78
2021/07/14 09:48:32;;;;;;;0.80;0.80;;;;;;;42.14;20.58;99705.19;4949935;28;20466;-81
2021/07/14 09:51:09;;;;;;;0.77;0.77;;;;;;;42.95;20.48;99687.94;4973306;28;20049;-80
2021/07/14 09:53:37;;;;;;;0.10;0.10;;;;;;;39.85;24.04;99697.41;4939062;28;20045;-79
2021/07/14 09:56:14;;;;;;;0.10;0.10;;;;;;;38.71;24.44;99687.88;4986863;28;20038;-79
2021/07/14 09:58:40;;;;;;;0.15;0.10;;;;;;;37.77;26.05;99686.84;4953617;28;20039;-79
2021/07/14 10:01:09;;;;;;;0.80;0.80;;;;;;;38.08;25.93;99686.69;4955138;28;20084;-81
2021/07/14 10:03:37;;;;;;;0.80;0.80;;;;;;;40.00;22.83;99688.31;4967521;28;20046;-78
2021/07/14 10:06:11;;;;;;;0.10;0.10;;;;;;;40.17;22.24;99689.34;4981747;28;20066;-81
2021/07/14 10:08:42;;;;;;;0.10;0.10;;;;;;;39.78;23.39;99685.81;4969769;28;20255;-79
2021/07/14 10:11:18;;;;;;;0.13;0.10;;;;;;;38.82;24.22;99682.72;4964754;28;20055;-79
2021/07/14 10:14:03;;;;;;;0.10;0.10;;;;;;;38.17;25.04;99679.03;4950823;28;20065;-80
2021/07/14 10:16:34;;;;;;;0.57;0.10;;;;;;;37.80;25.11;99675.72;4981731;28;20523;-79
2021/07/14 10:19:16;;;;;;;0.90;0.90;;;;;;;38.79;24.39;99681.34;4969119;28;20044;-82
2021/07/14 10:21:50;;;;;;;0.80;0.80;;;;;;;40.60;21.52;99682.41;4979715;28;20483;-78
2021/07/14 10:24:18;;;;;;;0.80;0.80;;;;;;;40.98;21.52;99665.03;4939134;28;20051;-80
2021/07/14 10:26:47;;;;;;;0.73;0.73;;;;;;;40.96;21.69;99673.09;4939220;28;20046;-80
2021/07/14 10:29:15;;;;;;;0.70;0.70;;;;;;;40.84;21.54;99661.72;4971199;28;20030;-81
2021/07/14 10:31:42;;;;;;;0.60;0.60;;;;;;;41.89;20.07;99668.38;4965438;28;20046;-82
2021/07/14 10:34:09;;;;;;;0.10;0.10;;;;;;;39.71;21.70;99657.22;4977404;28;20053;-80
2021/07/14 10:36:38;;;;;;;0.10;0.10;;;;;;;39.09;23.05;99653.16;4958707;28;20248;-81
2021/07/14 10:39:11;;;;;;;0.43;0.43;;;;;;;39.37;22.97;99659.13;4977204;28;20045;-82
2021/07/14 10:41:37;;;;;;;;;;;;;;;40.77;21.56;99648.13;4970471;28;20054;-80
2021/07/14 10:44:06;;;;;;;0.70;0.70;;;;;;;41.56;19.93;99651.53;4969622;28;20531;-79
2021/07/14 10:46:34;;;;;;;0.70;0.70;;;;;;;42.12;19.51;99645.88;4968806;28;20411;-81
2021/07/14 10:49:02;;;;;;;0.70;0.70;;;;;;;41.73;20.52;99643.94;4951952;28;20042;-80
2021/07/14 10:51:29;;;;;;;0.63;0.63;;;;;;;40.95;21.58;99638.22;4936189;28;20181;-81
2021/07/14 10:53:58;;;;;;;0.60;0.60;;;;;;;41.13;21.46;99626.66;4952185;28;20509;-81
2021/07/14 10:56:27;;;;;;;0.70;0.70;;;;;;;40.82;21.19;99628.06;4966707;28;20083;-79
2021/07/14 10:58:53;;;;;;;0.60;0.60;;;;;;;40.58;21.31;99620.38;4987764;28;20058;-83
2021/07/14 11:01:49;;;;;;;0.10;0.10;;;;;;;39.93;22.18;99625.75;4952511;28;20053;-81
2021/07/14 11:04:27;;;;;;;0.80;0.80;;;;;;;40.20;21.09;99617.81;4966477;28;20345;-82
2021/07/14 11:07:07;;;;;;;0.70;0.70;;;;;;;41.83;20.27;99613.03;4985600;28;20057;-80
2021/07/14 11:09:35;;;;;;;0.80;0.80;;;;;;;42.82;19.46;99608.41;4951497;28;20294;-79
2021/07/14 11:12:12;;;;;;;0.10;0.10;;;;;;;41.09;21.39;99603.84;4970257;28;20042;-81
2021/07/14 11:14:41;;;;;;;0.70;0.70;;;;;;;41.51;20.85;99599.88;4967233;28;20077;-78
2021/07/14 11:17:10;;;;;;;0.70;0.70;;;;;;;41.12;21.01;99596.63;4970856;28;20125;-79
2021/07/14 11:19:49;;;;;;;0.77;0.60;;;;;;;40.16;22.44;99608.38;4990426;28;20038;-79
2021/07/14 11:22:16;;;;;;;0.80;0.80;;;;;;;40.36;21.43;99598.94;4984542;28;20089;-80
2021/07/14 11:24:53;;;;;;;0.20;0.20;;;;;;;40.43;21.81;99599.19;4971846;28;20042;-80
2021/07/14 11:27:25;;;;;;;0.85;0.85;;;;;;;42.05;19.96;99603.09;4968640;28;20053;-79
2021/07/14 11:29:56;;;;;;;0.70;0.70;;;;;;;42.35;20.11;99600.69;4940787;28;20053;-80
2021/07/14 11:32:35;;;;;;;0.60;0.60;;;;;;;40.27;20.68;99589.75;4956204;28;20066;-81
2021/07/14 11:35:06;;;;;;;0.60;0.60;;;;;;;40.39;21.46;99586.09;4958254;28;20054;-79
2021/07/14 11:37:44;;;;;;;0.70;0.70;;;;;;;40.24;21.58;99579.09;4961541;28;20069;-77
2021/07/14 11:40:23;;;;;;;0.80;0.80;;;;;;;40.87;21.46;99573.94;4959485;28;20042;-81
2021/07/14 11:42:54;;;;;;;0.60;0.60;;;;;;;40.67;21.67;99575.75;4979830;28;20158;-79
2021/07/14 11:45:38;;;;;;;0.65;0.65;;;;;;;41.80;20.32;99582.47;4976022;28;20047;-80
2021/07/14 11:48:12;;;;;;;0.75;0.75;;;;;;;41.21;20.70;99583.13;4955008;28;20085;-81
2021/07/14 11:50:44;;;;;;;0.60;0.60;;;;;;;39.95;21.52;99580.91;4986185;28;20048;-81
2021/07/14 11:53:30;;;;;;;0.70;0.70;;;;;;;40.70;21.64;99560.00;4971087;28;20068;-80
2021/07/14 11:56:05;;;;;;;0.60;0.60;;;;;;;40.02;21.84;99569.81;4953892;28;20082;-80
2021/07/14 11:58:53;;;;;;;0.60;0.60;;;;;;;39.72;22.18;99568.31;4976194;28;20105;-79
2021/07/14 12:01:24;;;;;;;0.60;0.60;;;;;;;39.81;22.04;99566.22;4971550;28;20562;-81
2021/07/14 12:06:39;;;;;;;0.50;0.50;;;;;;;40.68;21.07;99551.06;4988194;28;20053;-82
2021/07/14 12:09:14;;;;;;;0.50;0.50;;;;;;;39.18;21.98;99548.44;4953866;28;20050;-81
2021/07/14 12:11:43;;;;;;;0.50;0.50;;;;;;;38.89;23.25;99536.00;4986860;28;20042;-81
2021/07/14 12:14:11;;;;;;;0.40;0.40;;;;;;;38.80;22.29;99541.72;4986693;28;20042;-80
2021/07/14 12:16:37;;;;;;;0.40;0.40;;;;;;;39.12;22.33;99532.84;4954760;28;20117;-80
2021/07/14 12:19:03;;;;;;;0.20;0.20;;;;;;;37.94;22.88;99528.78;4974090;28;20361;-80
2021/07/14 12:21:38;;;;;;;0.30;0.30;;;;;;;37.28;24.36;99536.63;4964501;28;20039;-76
2021/07/14 12:24:05;;;;;;;0.20;0.20;;;;;;;36.99;25.34;99532.47;4960643;28;20053;-81
2021/07/14 12:26:31;;;;;;;0.30;0.30;;;;;;;36.56;26.22;99538.00;4935143;28;20049;-79
2021/07/14 12:28:57;;;;;;;0.20;0.20;;;;;;;36.54;26.13;99543.16;4986412;28;20034;-80
2021/07/14 12:31:24;;;;;;;0.13;0.13;;;;;;;35.90;27.28;99537.81;4969118;28;20068;-80
2021/07/14 12:33:53;;;;;;;0.10;0.10;;;;;;;35.47;27.45;99527.09;4968546;28;20054;-81
2021/07/14 12:36:19;;;;;;;0.10;0.10;;;;;;;35.30;28.08;99529.78;4984906;28;20096;-78
2021/07/14 12:38:56;;;;;;;0.00;0.00;;;;;;;35.40;28.27;99532.38;4969265;28;20180;-80
2021/07/14 12:41:26;;;;;;;0.10;0.10;;;;;;;35.42;27.84;99546.91;4954742;28;20038;-81
2021/07/14 12:44:06;;;;;;;0.10;0.10;;;;;;;34.99;27.59;99544.53;4970666;28;20051;-81
2021/07/14 12:46:32;;;;;;;0.10;0.10;;;;;;;34.86;27.65;99551.03;4923274;28;20427;-81
2021/07/14 12:49:20;;;;;;;0.10;0.10;;;;;;;34.67;28.36;99543.56;4956037;28;20046;-81
2021/07/14 12:52:04;;;;;;;0.10;0.10;;;;;;;34.82;28.24;99533.97;4985647;28;20049;-78
2021/07/14 12:54:31;;;;;;;0.10;0.10;;;;;;;35.52;27.69;99529.81;4970469;28;20105;-77
2021/07/14 12:57:19;;;;;;;0.10;0.10;;;;;;;36.19;26.48;99537.34;4968649;28;20066;-78
2021/07/14 13:00:04;;;;;;;0.17;0.10;;;;;;;36.64;25.88;99538.03;4954649;28;20034;-82
2021/07/14 13:02:37;;;;;;;0.10;0.10;;;;;;;36.80;25.09;99534.75;4967758;28;20046;-80
2021/07/14 13:05:05;;;;;;;0.10;0.10;;;;;;;36.99;25.10;99537.28;4971866;28;20053;-79
2021/07/14 13:07:31;;;;;;;0.50;0.30;;;;;;;36.19;25.58;99537.34;4942176;28;20118;-82
2021/07/14 13:10:04;;;;;;;0.10;0.10;;;;;;;34.93;26.61;99543.00;4976972;28;20077;-78
2021/07/14 13:12:31;;;;;;;0.10;0.10;;;;;;;34.57;26.54;99549.38;4964665;28;20131;-78
2021/07/14 13:14:57;;;;;;;0.10;0.10;;;;;;;34.95;26.74;99547.13;4993725;28;20046;-77
2021/07/14 13:17:35;;;;;;;0.30;0.10;;;;;;;34.90;26.79;99547.25;4963419;28;20547;-79
2021/07/14 13:20:04;;;;;;;0.65;0.20;;;;;;;34.94;26.26;99547.47;4994519;28;20092;-79
2021/07/14 13:22:31;;;;;;;0.10;0.10;;;;;;;34.91;26.79;99548.09;4962793;28;20038;-78
2021/07/14 13:25:03;;;;;;;0.10;0.10;;;;;;;34.82;26.81;99544.38;4943733;28;20138;-80